Time;durP1;ratioP1;P1;durP2;ratioP2;P2;SDS_P1;SDS_P2;PMS_P1;PMS_P2;Temp;Humidity;BMP_temperature;BMP_pressure;BME280_temperature;BME280_humidity;BME280_pressure;Samples;Min_cycle;Max_cycle;Signal;HPM_P1;HPM_P2
2022/04/01 00:00:56;;;;;;;5.90;3.55;;;3.50;84.50;;;;;;5136210;28;20032;-67
2022/04/01 00:03:22;;;;;;;4.72;2.83;;;3.50;83.80;;;;;;5136274;28;20019;-67
2022/04/01 00:05:48;;;;;;;5.65;3.50;;;3.40;83.90;;;;;;5136209;28;20032;-67
2022/04/01 00:08:14;;;;;;;5.25;3.20;;;3.40;83.90;;;;;;5136179;28;20024;-67
2022/04/01 00:10:40;;;;;;;6.53;3.30;;;3.30;84.40;;;;;;5135381;28;20048;-67
2022/04/01 00:13:06;;;;;;;5.05;2.88;;;3.30;84.40;;;;;;5136099;28;20097;-67
2022/04/01 00:15:33;;;;;;;5.63;3.03;;;3.30;84.40;;;;;;5136060;28;20024;-67
2022/04/01 00:18:00;;;;;;;3.95;2.60;;;3.30;84.50;;;;;;5136001;28;20028;-67
2022/04/01 00:20:27;;;;;;;5.68;2.78;;;3.30;84.70;;;;;;5135901;28;20442;-67
2022/04/01 00:22:53;;;;;;;4.78;2.78;;;3.30;84.80;;;;;;5136015;28;20050;-67
2022/04/01 00:25:19;;;;;;;5.47;3.00;;;3.20;84.50;;;;;;5135877;28;20028;-67
2022/04/01 00:27:44;;;;;;;5.28;2.80;;;3.20;84.80;;;;;;5135609;28;20077;-67
2022/04/01 00:30:11;;;;;;;7.63;3.25;;;3.20;85.10;;;;;;5135516;28;20067;-67
2022/04/01 00:32:37;;;;;;;5.18;2.97;;;3.20;84.90;;;;;;5135903;28;20058;-67
2022/04/01 00:35:04;;;;;;;5.53;3.00;;;3.30;84.80;;;;;;5134863;28;20024;-67
2022/04/01 00:37:29;;;;;;;5.85;3.63;;;3.20;84.80;;;;;;5135736;28;20024;-67
2022/04/01 00:39:55;;;;;;;4.55;2.70;;;3.20;85.20;;;;;;5135462;28;20062;-67
2022/04/01 00:42:21;;;;;;;5.68;3.20;;;3.20;85.10;;;;;;5134710;28;20034;-67
2022/04/01 00:44:47;;;;;;;4.53;2.90;;;3.20;85.00;;;;;;5135470;28;20027;-67
2022/04/01 00:47:14;;;;;;;4.50;3.00;;;3.20;85.10;;;;;;5135505;28;20027;-67
2022/04/01 00:49:42;;;;;;;4.72;2.83;;;3.30;84.80;;;;;;5135411;28;20042;-67
2022/04/01 00:52:14;;;;;;;9.35;3.30;;;3.30;84.80;;;;;;5135299;28;20038;-67
2022/04/01 00:54:40;;;;;;;3.88;2.53;;;3.20;84.70;;;;;;5135287;28;20040;-67
2022/04/01 00:57:11;;;;;;;4.60;3.05;;;3.30;84.90;;;;;;5135183;28;20032;-67
2022/04/01 00:59:36;;;;;;;7.25;2.90;;;3.20;85.00;;;;;;5135240;28;20057;-67
2022/04/01 01:02:03;;;;;;;6.25;3.05;;;3.30;84.90;;;;;;5135068;28;20023;-67
2022/04/01 01:04:29;;;;;;;7.68;2.88;;;3.30;85.10;;;;;;5135187;28;20047;-67
2022/04/01 01:06:57;;;;;;;4.03;2.50;;;3.30;84.70;;;;;;5135013;28;20040;-67
2022/04/01 01:09:25;;;;;;;5.35;2.83;;;3.30;84.80;;;;;;5133956;28;20020;-67
2022/04/01 01:11:52;;;;;;;6.03;2.72;;;3.30;84.70;;;;;;5134176;28;20456;-67
2022/04/01 01:14:38;;;;;;;5.30;3.05;;;3.30;84.70;;;;;;5134895;28;20027;-67
2022/04/01 01:17:11;;;;;;;6.57;2.70;;;3.20;84.80;;;;;;5134733;28;20016;-67
2022/04/01 01:19:37;;;;;;;3.58;2.42;;;3.20;84.60;;;;;;5134822;28;20020;-67
2022/04/01 01:22:04;;;;;;;5.30;2.40;;;3.20;84.80;;;;;;5133832;28;20046;-67
2022/04/01 01:24:37;;;;;;;5.32;2.92;;;3.10;85.30;;;;;;5133545;28;20019;-67
2022/04/01 01:27:07;;;;;;;4.47;2.60;;;3.10;85.30;;;;;;5134668;28;20027;-67
2022/04/01 01:29:38;;;;;;;4.25;2.78;;;3.10;85.20;;;;;;5134494;28;20108;-67
2022/04/01 01:32:06;;;;;;;4.47;2.45;;;3.10;85.30;;;;;;5134619;28;20046;-68
2022/04/01 01:34:32;;;;;;;5.70;2.90;;;3.10;85.10;;;;;;5134452;28;20055;-67
2022/04/01 01:36:59;;;;;;;3.97;2.70;;;3.10;85.20;;;;;;5134446;28;20039;-67
2022/04/01 01:39:25;;;;;;;4.43;2.45;;;3.10;85.20;;;;;;5133410;28;20015;-67
2022/04/01 01:41:53;;;;;;;5.57;2.85;;;3.10;85.40;;;;;;5134434;28;20076;-67
2022/04/01 01:44:21;;;;;;;5.28;2.80;;;3.10;85.40;;;;;;5134373;28;20030;-67
2022/04/01 01:46:47;;;;;;;4.60;2.85;;;3.00;85.30;;;;;;5134311;28;20027;-67
2022/04/01 01:49:12;;;;;;;6.43;3.15;;;3.10;85.30;;;;;;5134269;28;20015;-67
2022/04/01 01:57:07;;;;;;;5.35;2.88;;;3.00;85.70;;;;;;5134246;28;20412;-67
2022/04/01 01:59:34;;;;;;;5.43;3.10;;;3.10;85.40;;;;;;5134124;28;20031;-67
2022/04/01 02:02:03;;;;;;;4.57;2.85;;;3.10;85.30;;;;;;5134004;28;20054;-67
2022/04/01 02:04:29;;;;;;;5.72;2.97;;;3.10;85.50;;;;;;5134075;28;20031;-67
2022/04/01 02:06:55;;;;;;;4.65;2.95;;;3.10;85.40;;;;;;5134021;28;20541;-67
2022/04/01 02:09:21;;;;;;;4.97;2.67;;;3.00;85.50;;;;;;5133035;28;20054;-67
2022/04/01 02:11:47;;;;;;;4.10;2.75;;;3.00;86.00;;;;;;5134118;28;20034;-67
2022/04/01 02:14:13;;;;;;;4.85;3.08;;;3.10;85.90;;;;;;5133944;28;20028;-67
2022/04/01 02:16:39;;;;;;;4.45;2.85;;;3.00;85.80;;;;;;5133882;28;20048;-67
2022/04/01 02:19:05;;;;;;;5.95;3.35;;;3.10;86.60;;;;;;5133841;28;20062;-67
2022/04/01 02:21:31;;;;;;;5.00;3.08;;;3.10;85.60;;;;;;5133799;28;20031;-67
2022/04/01 02:23:56;;;;;;;4.25;2.92;;;3.10;85.60;;;;;;5132875;28;20027;-67
2022/04/01 02:26:22;;;;;;;4.70;2.67;;;3.10;85.90;;;;;;5133794;28;20027;-67
2022/04/01 02:28:48;;;;;;;5.38;3.20;;;3.10;85.50;;;;;;5133507;28;20059;-67
2022/04/01 02:31:18;;;;;;;4.50;2.63;;;3.10;85.60;;;;;;5133721;28;20059;-67
2022/04/01 02:33:43;;;;;;;5.50;3.08;;;3.00;86.00;;;;;;5134691;28;20023;-67
2022/04/01 02:36:13;;;;;;;5.30;2.85;;;2.90;86.40;;;;;;5138013;28;20035;-67
2022/04/01 02:38:40;;;;;;;4.47;2.85;;;3.00;86.40;;;;;;5137925;28;20034;-67
2022/04/01 02:41:07;;;;;;;5.20;3.13;;;3.00;86.30;;;;;;5137817;28;20027;-67
2022/04/01 02:43:33;;;;;;;6.40;3.35;;;2.90;86.30;;;;;;5137853;28;20020;-67
2022/04/01 02:45:59;;;;;;;5.28;3.63;;;3.00;86.40;;;;;;5137800;28;20069;-67
2022/04/01 02:48:26;;;;;;;4.90;3.03;;;3.10;86.10;;;;;;5137771;28;20051;-67
2022/04/01 02:50:51;;;;;;;4.80;3.33;;;3.00;86.20;;;;;;5137679;28;20051;-67
2022/04/01 02:53:17;;;;;;;4.60;2.90;;;3.10;85.90;;;;;;5136581;28;20024;-67
2022/04/01 02:55:44;;;;;;;5.18;3.20;;;3.10;85.40;;;;;;5137621;28;20026;-67
2022/04/01 02:58:10;;;;;;;5.60;3.75;;;3.10;85.50;;;;;;5137588;28;20023;-67
2022/04/01 03:00:37;;;;;;;6.70;4.05;;;3.10;85.80;;;;;;5137455;28;20053;-67
2022/04/01 03:03:08;;;;;;;6.43;3.90;;;3.10;85.70;;;;;;5137490;28;20026;-67
2022/04/01 03:05:35;;;;;;;7.30;4.38;;;3.10;85.60;;;;;;5137489;28;20023;-67
2022/04/01 03:08:00;;;;;;;7.45;4.68;;;3.10;85.50;;;;;;5137378;28;20487;-67
2022/04/01 03:10:27;;;;;;;6.50;4.07;;;3.10;85.60;;;;;;5137321;28;20028;-67
2022/04/01 03:12:53;;;;;;;7.25;4.65;;;3.10;85.40;;;;;;5136182;28;20024;-67
2022/04/01 03:15:19;;;;;;;6.55;3.90;;;3.10;85.40;;;;;;5136194;28;20061;-67
2022/04/01 03:17:45;;;;;;;6.55;3.75;;;3.10;85.50;;;;;;5136308;28;20035;-67
2022/04/01 03:20:13;;;;;;;7.20;4.55;;;3.00;85.50;;;;;;5136106;28;20425;-67
2022/04/01 03:22:41;;;;;;;7.60;4.18;;;3.10;85.40;;;;;;5137096;28;20012;-67
2022/04/01 03:25:12;;;;;;;7.13;4.28;;;3.10;85.50;;;;;;5137090;28;20081;-67
2022/04/01 03:27:39;;;;;;;7.50;5.07;;;3.10;85.30;;;;;;5134838;28;20027;-67
2022/04/01 03:30:09;;;;;;;7.53;4.53;;;3.10;85.20;;;;;;5136777;28;20130;-67
2022/04/01 03:32:37;;;;;;;8.05;4.35;;;3.10;85.10;;;;;;5136918;28;20039;-67
2022/04/01 03:35:05;;;;;;;7.28;4.25;;;3.10;85.10;;;;;;5136866;28;20046;-67
2022/04/01 03:37:30;;;;;;;8.80;4.68;;;3.10;85.20;;;;;;5136894;28;20015;-67
2022/04/01 03:39:56;;;;;;;8.73;4.20;;;3.10;85.20;;;;;;5135651;28;20026;-67
2022/04/01 03:42:22;;;;;;;7.20;4.70;;;3.10;85.20;;;;;;5136712;28;20028;-67
2022/04/01 03:44:48;;;;;;;7.85;4.93;;;3.10;85.30;;;;;;5136199;28;20058;-67
2022/04/01 03:47:21;;;;;;;6.85;4.35;;;3.10;85.40;;;;;;5136169;28;20023;-67
2022/04/01 03:49:54;;;;;;;7.72;4.40;;;3.10;85.20;;;;;;5136597;28;20075;-67
2022/04/01 03:52:20;;;;;;;6.68;3.90;;;3.10;85.10;;;;;;5136586;28;20045;-67
2022/04/01 03:54:47;;;;;;;7.05;3.97;;;3.10;85.00;;;;;;5136526;28;20032;-67
2022/04/01 03:57:18;;;;;;;6.63;4.35;;;3.00;85.20;;;;;;5136420;28;20018;-67
2022/04/01 03:59:50;;;;;;;6.20;4.10;;;3.00;85.30;;;;;;5136451;28;20494;-67
2022/04/01 04:02:18;;;;;;;;;;;3.00;85.40;;;;;;5135740;28;20051;-67
2022/04/01 04:04:44;;;;;;;6.03;3.05;;;3.00;85.40;;;;;;5136294;28;19931;-67
2022/04/01 04:07:10;;;;;;;5.47;3.53;;;2.90;85.20;;;;;;5136297;27;20020;-67
2022/04/01 04:09:39;;;;;;;7.10;3.83;;;2.90;85.50;;;;;;5136184;28;20023;-68
2022/04/01 04:12:07;;;;;;;6.15;3.25;;;3.00;85.40;;;;;;5136150;28;20028;-67
2022/04/01 04:14:33;;;;;;;6.22;3.85;;;3.00;85.30;;;;;;5135167;28;20032;-68
2022/04/01 04:17:07;;;;;;;6.82;4.00;;;3.00;85.10;;;;;;5136137;28;20027;-68
2022/04/01 04:19:41;;;;;;;6.20;3.83;;;3.00;84.80;;;;;;5135083;28;20031;-68
2022/04/01 04:22:13;;;;;;;;;;;3.00;84.70;;;;;;5136319;28;20023;-67
2022/04/01 04:24:49;;;;;;;7.00;3.60;;;3.00;84.70;;;;;;5135912;28;19903;-67
2022/04/01 04:27:17;;;;;;;6.65;4.07;;;3.00;84.70;;;;;;5134864;28;20087;-67
2022/04/01 04:29:48;;;;;;;6.93;4.03;;;3.00;84.60;;;;;;5135550;28;20056;-67
2022/04/01 04:32:38;;;;;;;7.95;4.18;;;3.00;84.70;;;;;;5135825;28;20097;-67
2022/04/01 04:35:07;;;;;;;7.80;3.92;;;3.00;84.70;;;;;;5105231;28;20039;-67
2022/04/01 04:37:35;;;;;;;8.02;4.25;;;3.00;84.70;;;;;;5135677;28;20019;-67
2022/04/01 04:40:02;;;;;;;7.13;4.32;;;3.00;84.60;;;;;;5135498;28;20034;-67
2022/04/01 04:42:29;;;;;;;8.00;4.72;;;3.00;84.60;;;;;;5135498;28;20051;-67
2022/04/01 04:44:56;;;;;;;7.95;4.82;;;3.00;84.60;;;;;;5135496;28;20043;-67
2022/04/01 04:47:28;;;;;;;7.40;4.43;;;3.00;84.40;;;;;;5134369;28;20012;-67
2022/04/01 04:49:56;;;;;;;;;;;3.00;84.40;;;;;;5135901;28;20016;-67
2022/04/01 04:52:35;;;;;;;7.03;4.07;;;2.90;84.40;;;;;;5135376;28;19911;-67
2022/04/01 04:55:06;;;;;;;9.13;4.32;;;2.90;84.60;;;;;;5135506;28;20020;-67
2022/04/01 04:57:33;;;;;;;7.38;4.32;;;2.90;84.60;;;;;;5134024;28;20031;-67
2022/04/01 05:00:00;;;;;;;8.45;4.78;;;2.90;84.50;;;;;;5135137;28;20049;-67
2022/04/01 05:02:42;;;;;;;6.05;3.97;;;2.90;84.50;;;;;;5135153;28;20083;-67
2022/04/01 05:05:38;;;;;;;7.40;3.83;;;2.90;84.20;;;;;;5135209;28;20072;-67
2022/04/01 05:08:35;;;;;;;7.32;3.92;;;2.90;84.30;;;;;;5135116;28;20015;-67
2022/04/01 05:11:28;;;;;;;7.68;4.18;;;2.80;84.40;;;;;;5134916;28;20055;-67
2022/04/01 05:14:05;;;;;;;7.53;3.90;;;2.80;84.70;;;;;;5135091;28;20019;-67
2022/04/01 05:16:39;;;;;;;8.68;3.95;;;2.70;84.30;;;;;;5134915;28;20020;-67
2022/04/01 05:19:12;;;;;;;8.57;4.22;;;2.80;84.40;;;;;;5134779;28;20047;-67
2022/04/01 05:22:00;;;;;;;6.35;4.00;;;2.80;83.80;;;;;;5134709;28;20492;-67
2022/04/01 05:24:47;;;;;;;6.55;4.00;;;2.80;83.90;;;;;;5134792;28;20023;-67
2022/04/01 05:27:32;;;;;;;5.80;3.90;;;2.70;83.50;;;;;;5134662;28;20026;-67
2022/04/01 05:30:13;;;;;;;6.72;3.60;;;2.70;83.90;;;;;;5134398;28;20183;-67
2022/04/01 05:32:40;;;;;;;8.68;4.18;;;2.80;83.90;;;;;;5134553;28;20028;-67
2022/04/01 05:35:07;;;;;;;6.43;4.20;;;2.80;83.90;;;;;;5134626;28;20047;-67
2022/04/01 05:37:34;;;;;;;9.02;5.22;;;2.80;83.80;;;;;;5134540;28;20012;-67
2022/04/01 05:40:05;;;;;;;6.80;3.97;;;2.80;83.70;;;;;;5134491;28;20020;-68
2022/04/01 05:42:32;;;;;;;7.47;3.83;;;2.90;83.50;;;;;;5134487;28;20043;-67
2022/04/01 05:44:59;;;;;;;6.57;4.15;;;2.90;83.20;;;;;;5133402;28;20026;-67
2022/04/01 05:47:27;;;;;;;6.35;3.78;;;2.90;83.00;;;;;;5134338;28;20023;-67
2022/04/01 05:49:57;;;;;;;6.45;3.75;;;2.80;82.90;;;;;;5134301;28;20050;-67
2022/04/01 05:52:23;;;;;;;7.40;4.07;;;2.90;83.10;;;;;;5134222;28;20019;-67
2022/04/01 05:54:49;;;;;;;6.75;3.67;;;2.80;82.80;;;;;;5134203;28;20047;-67
2022/04/01 05:57:18;;;;;;;5.50;3.85;;;2.90;83.00;;;;;;5134167;28;20020;-67
2022/04/01 05:59:44;;;;;;;6.28;3.30;;;2.80;82.60;;;;;;5134168;28;20024;-67
2022/04/01 06:02:44;;;;;;;6.25;3.65;;;2.90;82.70;;;;;;5133145;28;20079;-67
2022/04/01 06:05:45;;;;;;;6.57;3.50;;;2.90;82.60;;;;;;5104866;28;20042;-67
2022/04/01 06:08:38;;;;;;;5.93;3.40;;;2.90;82.90;;;;;;5133534;28;20103;-67
2022/04/01 06:11:28;;;;;;;5.63;3.40;;;2.80;82.10;;;;;;5134159;28;20031;-67
2022/04/01 06:14:24;;;;;;;6.18;3.20;;;2.80;82.80;;;;;;5134096;28;20041;-67
2022/04/01 06:17:02;;;;;;;6.95;3.40;;;2.80;82.70;;;;;;5125465;28;20092;-67
2022/04/01 06:19:46;;;;;;;4.57;3.03;;;2.80;82.80;;;;;;5133882;28;20023;-66
2022/04/01 06:22:12;;;;;;;6.90;3.20;;;2.80;82.40;;;;;;5133775;28;20057;-67
2022/04/01 06:24:59;;;;;;;6.72;3.28;;;2.80;82.40;;;;;;5133764;28;20087;-67
2022/04/01 06:27:33;;;;;;;7.78;3.28;;;2.80;82.10;;;;;;5133862;28;20027;-67
2022/04/01 06:30:11;;;;;;;5.60;3.40;;;2.90;82.00;;;;;;5133611;28;20050;-67
2022/04/01 06:32:52;;;;;;;4.93;3.10;;;2.80;82.10;;;;;;5133916;28;20019;-67
2022/04/01 06:35:39;;;;;;;6.25;3.40;;;2.90;82.20;;;;;;5133755;28;20053;-67
2022/04/01 06:38:10;;;;;;;6.38;2.50;;;2.80;81.90;;;;;;5133718;28;20020;-67
2022/04/01 06:40:54;;;;;;;5.78;3.08;;;2.80;81.50;;;;;;5132663;28;20091;-67
2022/04/01 06:43:20;;;;;;;5.45;3.03;;;2.80;81.60;;;;;;5132606;28;20023;-67
2022/04/01 06:45:46;;;;;;;5.63;2.65;;;2.80;82.40;;;;;;5115602;28;20042;-67
2022/04/01 06:48:11;;;;;;;6.28;3.13;;;2.80;81.60;;;;;;5133563;28;20028;-67
2022/04/01 06:50:37;;;;;;;5.82;3.00;;;2.90;81.50;;;;;;5133570;28;20049;-67
2022/04/01 06:53:04;;;;;;;5.10;2.40;;;2.80;81.60;;;;;;5132532;28;20023;-67
2022/04/01 06:55:30;;;;;;;5.57;2.92;;;2.90;81.60;;;;;;5133470;28;20039;-67
2022/04/01 06:57:56;;;;;;;6.75;2.78;;;2.90;81.50;;;;;;5133605;28;20035;-67
2022/04/01 07:00:21;;;;;;;5.10;2.88;;;2.90;81.40;;;;;;5133496;28;20049;-67
2022/04/01 07:02:48;;;;;;;7.38;2.92;;;2.90;81.50;;;;;;5132515;28;20028;-67
2022/04/01 07:05:13;;;;;;;5.65;3.25;;;2.90;81.70;;;;;;5133450;28;20026;-67
2022/04/01 07:07:43;;;;;;;6.32;3.10;;;2.90;81.60;;;;;;5133401;28;20024;-66
2022/04/01 07:10:12;;;;;;;5.00;2.72;;;3.00;81.60;;;;;;5133482;28;20039;-66
2022/04/01 07:12:38;;;;;;;4.82;2.60;;;3.00;81.40;;;;;;5133400;28;20083;-67
2022/04/01 07:15:07;;;;;;;5.28;3.20;;;2.90;81.30;;;;;;5133349;28;20032;-66
2022/04/01 07:17:33;;;;;;;4.05;2.50;;;2.90;81.20;;;;;;5133481;28;20035;-67
2022/04/01 07:19:59;;;;;;;4.60;2.42;;;2.90;81.20;;;;;;5133567;28;20020;-66
2022/04/01 07:22:25;;;;;;;7.82;2.95;;;2.90;81.50;;;;;;5137001;28;20051;-67
2022/04/01 07:24:50;;;;;;;3.72;2.05;;;3.00;81.20;;;;;;5137111;28;20043;-67
2022/04/01 07:27:17;;;;;;;5.72;2.58;;;3.00;80.90;;;;;;5136954;28;20020;-66
2022/04/01 07:29:43;;;;;;;5.50;2.72;;;3.00;80.90;;;;;;5136753;28;20032;-66
2022/04/01 07:34:53;;;;;;;4.90;2.28;;;3.00;81.10;;;;;;5137112;28;20051;-67
2022/04/01 07:37:23;;;;;;;4.50;2.47;;;3.10;81.10;;;;;;5135995;28;20019;-68
2022/04/01 07:39:51;;;;;;;5.40;2.42;;;3.10;80.70;;;;;;5137023;28;20024;-67
2022/04/01 07:42:21;;;;;;;5.20;2.75;;;3.10;81.00;;;;;;5136593;28;20032;-68
2022/04/01 07:44:48;;;;;;;4.15;2.28;;;3.10;80.80;;;;;;5136843;28;20023;-67
2022/04/01 07:47:14;;;;;;;4.43;2.45;;;3.10;80.90;;;;;;5135594;28;20028;-67
2022/04/01 07:49:43;;;;;;;4.03;2.40;;;3.00;80.60;;;;;;5136608;28;20024;-68
2022/04/01 07:52:10;;;;;;;3.95;2.40;;;3.00;81.10;;;;;;5136520;28;20028;-68
2022/04/01 07:54:37;;;;;;;4.57;2.47;;;3.10;81.20;;;;;;5136470;28;20028;-68
2022/04/01 07:57:04;;;;;;;4.32;2.40;;;3.00;81.00;;;;;;5136434;28;20023;-67
2022/04/01 07:59:29;;;;;;;6.10;3.17;;;2.90;81.00;;;;;;5136551;28;20023;-67
2022/04/01 08:01:56;;;;;;;8.07;2.30;;;2.90;81.50;;;;;;5135392;28;20035;-67
2022/04/01 08:04:23;;;;;;;4.60;2.60;;;3.00;81.40;;;;;;5136320;28;20525;-67
2022/04/01 08:06:49;;;;;;;3.63;2.17;;;3.00;81.00;;;;;;5136244;28;20030;-67
2022/04/01 08:09:14;;;;;;;3.28;2.25;;;3.00;81.30;;;;;;5136183;28;20032;-67
2022/04/01 08:11:40;;;;;;;5.20;2.33;;;3.00;81.20;;;;;;5135087;28;20034;-67
2022/04/01 08:14:06;;;;;;;4.38;2.30;;;3.00;81.30;;;;;;5136143;28;20027;-67
2022/04/01 08:16:32;;;;;;;5.78;2.00;;;3.00;81.10;;;;;;5136073;28;20495;-67
2022/04/01 08:18:58;;;;;;;3.75;2.17;;;2.80;80.80;;;;;;5135981;28;20023;-67
2022/04/01 08:21:23;;;;;;;4.00;2.20;;;2.90;81.80;;;;;;5135988;28;20016;-67
2022/04/01 08:23:49;;;;;;;8.50;2.53;;;2.90;81.50;;;;;;5134879;28;20039;-67
2022/04/01 08:26:15;;;;;;;4.90;2.20;;;3.00;81.00;;;;;;5135880;28;20035;-67
2022/04/01 08:28:41;;;;;;;4.70;2.45;;;3.00;81.30;;;;;;5135615;28;20037;-67
2022/04/01 08:31:08;;;;;;;5.22;2.38;;;3.10;82.00;;;;;;5135348;28;20035;-67
2022/04/01 08:33:34;;;;;;;3.60;2.35;;;3.10;81.10;;;;;;5134709;28;20020;-67
2022/04/01 08:35:59;;;;;;;3.92;2.25;;;3.10;80.40;;;;;;5135827;28;20102;-67
2022/04/01 08:38:25;;;;;;;3.42;1.98;;;3.10;80.40;;;;;;5135644;28;20031;-67
2022/04/01 08:40:50;;;;;;;3.65;2.03;;;3.10;80.60;;;;;;5117456;28;20031;-67
2022/04/01 08:43:31;;;;;;;3.58;1.90;;;3.20;80.50;;;;;;5135563;28;20031;-67
2022/04/01 08:45:59;;;;;;;3.92;1.95;;;3.20;80.10;;;;;;5135512;28;20476;-67
2022/04/01 08:48:27;;;;;;;3.83;1.80;;;3.20;80.10;;;;;;5135486;27;20041;-67
2022/04/01 08:50:53;;;;;;;3.67;2.13;;;3.20;80.20;;;;;;5135512;28;20028;-67
2022/04/01 08:53:19;;;;;;;4.47;2.03;;;3.30;80.20;;;;;;5135386;28;20031;-67
2022/04/01 08:55:53;;;;;;;5.75;2.20;;;3.30;79.70;;;;;;5134306;28;20028;-67
2022/04/01 08:58:20;;;;;;;3.13;1.60;;;3.40;79.60;;;;;;5135300;28;20027;-67
2022/04/01 09:00:50;;;;;;;4.03;1.80;;;3.40;79.30;;;;;;5117196;28;20031;-67
2022/04/01 09:03:18;;;;;;;3.25;1.80;;;3.40;79.30;;;;;;5135190;28;20096;-67
2022/04/01 09:05:46;;;;;;;4.53;2.00;;;3.50;79.30;;;;;;5135137;27;20030;-67
2022/04/01 09:08:16;;;;;;;3.38;1.50;;;3.50;78.90;;;;;;5135103;28;20030;-67
2022/04/01 09:11:04;;;;;;;3.45;1.52;;;3.50;78.40;;;;;;5135073;28;20023;-67
2022/04/01 09:13:45;;;;;;;2.88;1.58;;;3.50;78.40;;;;;;5134961;28;20027;-67
2022/04/01 09:16:27;;;;;;;3.85;1.70;;;3.50;77.90;;;;;;5134956;28;20081;-67
2022/04/01 09:18:58;;;;;;;4.73;1.83;;;3.50;77.70;;;;;;5135035;28;20455;-67
2022/04/01 09:21:33;;;;;;;3.20;1.67;;;3.50;78.60;;;;;;5134749;28;20030;-67
2022/04/01 09:24:00;;;;;;;3.42;1.60;;;3.50;77.50;;;;;;5134837;28;20356;-67
2022/04/01 09:26:37;;;;;;;4.25;1.70;;;3.60;77.70;;;;;;5134690;28;20024;-67
2022/04/01 09:29:05;;;;;;;4.85;1.80;;;3.60;77.90;;;;;;5134330;28;20047;-67
2022/04/01 09:31:36;;;;;;;3.40;1.70;;;3.60;77.60;;;;;;5134608;28;20094;-67
2022/04/01 09:34:06;;;;;;;3.15;1.55;;;3.70;77.70;;;;;;5134654;28;20076;-67
2022/04/01 09:36:33;;;;;;;3.63;2.00;;;3.70;77.40;;;;;;5134481;28;20016;-68
2022/04/01 09:39:02;;;;;;;3.28;1.70;;;3.80;77.20;;;;;;5134406;28;20024;-67
2022/04/01 09:41:32;;;;;;;2.75;1.88;;;3.80;77.10;;;;;;5134495;28;20020;-67
2022/04/01 09:44:12;;;;;;;2.47;1.50;;;3.80;77.30;;;;;;5133479;28;20043;-67
2022/04/01 09:46:43;;;;;;;4.68;1.85;;;3.80;78.00;;;;;;5134347;28;20028;-67
2022/04/01 09:49:09;;;;;;;2.58;1.48;;;3.80;77.20;;;;;;5134299;28;20011;-67
2022/04/01 09:51:39;;;;;;;3.58;1.80;;;3.80;77.20;;;;;;5134289;28;20035;-67
2022/04/01 09:54:06;;;;;;;5.10;1.80;;;3.80;77.40;;;;;;5134302;28;20023;-67
2022/04/01 09:56:47;;;;;;;3.05;2.17;;;3.90;77.60;;;;;;5134215;28;20031;-67
2022/04/01 09:59:15;;;;;;;4.25;1.80;;;3.90;77.40;;;;;;5134293;28;20024;-67
2022/04/01 10:01:42;;;;;;;3.28;1.75;;;3.90;77.30;;;;;;5134041;28;20496;-68
2022/04/01 10:04:09;;;;;;;4.22;2.10;;;3.90;77.20;;;;;;5134066;28;20111;-67
2022/04/01 10:06:36;;;;;;;4.22;2.28;;;3.90;77.20;;;;;;5134040;28;20028;-68
2022/04/01 10:09:08;;;;;;;4.78;2.30;;;3.90;77.20;;;;;;5133991;28;20058;-68
2022/04/01 10:11:36;;;;;;;4.47;2.50;;;3.90;76.20;;;;;;5134118;28;20019;-67
2022/04/01 10:14:16;;;;;;;4.47;2.45;;;3.90;76.90;;;;;;5133926;28;20049;-68
2022/04/01 10:16:44;;;;;;;3.85;2.47;;;3.80;76.70;;;;;;5133964;28;20020;-67
2022/04/01 10:19:19;;;;;;;8.70;2.80;;;3.80;76.40;;;;;;5133936;28;20098;-68
2022/04/01 10:21:45;;;;;;;6.53;2.53;;;3.80;76.10;;;;;;5133802;28;20019;-69
2022/04/01 10:24:13;;;;;;;4.82;2.90;;;3.90;76.20;;;;;;5133825;28;20024;-69
2022/04/01 10:27:03;;;;;;;4.20;2.72;;;3.90;75.80;;;;;;5133795;28;20030;-69
2022/04/01 10:29:30;;;;;;;7.53;2.70;;;3.80;74.70;;;;;;5133543;28;20123;-66
2022/04/01 10:32:26;;;;;;;5.40;2.85;;;3.80;74.90;;;;;;5133724;28;20039;-67
2022/04/01 10:34:55;;;;;;;5.28;2.75;;;3.90;75.00;;;;;;5133826;28;20117;-67
2022/04/01 10:37:23;;;;;;;6.93;3.03;;;3.80;74.70;;;;;;5133709;28;20050;-67
2022/04/01 10:39:50;;;;;;;6.53;2.60;;;3.80;74.40;;;;;;5133646;28;20377;-66
2022/04/01 10:42:17;;;;;;;12.95;4.47;;;3.90;74.90;;;;;;5133614;28;20024;-68
2022/04/01 10:44:45;;;;;;;5.22;2.95;;;3.90;74.60;;;;;;5133651;28;20019;-69
2022/04/01 10:47:11;;;;;;;4.97;2.95;;;4.00;74.80;;;;;;5133557;28;20020;-66
2022/04/01 10:52:24;;;;;;;5.28;3.15;;;4.00;74.70;;;;;;5133652;28;20039;-66
2022/04/01 10:55:06;;;;;;;4.35;2.80;;;4.00;74.70;;;;;;5134591;28;20026;-66
2022/04/01 10:57:50;;;;;;;4.18;2.72;;;4.10;75.00;;;;;;5137708;28;20024;-66
2022/04/01 11:00:17;;;;;;;7.68;3.58;;;4.10;74.70;;;;;;5137566;28;20016;-67
2022/04/01 11:02:46;;;;;;;6.95;3.38;;;4.20;74.40;;;;;;5137541;28;20106;-67
2022/04/01 11:05:21;;;;;;;4.90;2.88;;;4.10;74.50;;;;;;5137480;28;20024;-67
2022/04/01 11:08:20;;;;;;;6.03;3.35;;;4.10;74.20;;;;;;5137457;28;20019;-67
2022/04/01 11:11:04;;;;;;;4.30;2.45;;;4.20;74.50;;;;;;5137433;28;20103;-67
2022/04/01 11:13:30;;;;;;;6.93;3.13;;;4.20;74.60;;;;;;5137429;28;20030;-67
2022/04/01 11:16:16;;;;;;;6.13;3.10;;;4.20;74.70;;;;;;5137228;28;20081;-67
2022/04/01 11:19:13;;;;;;;3.92;2.85;;;4.20;74.80;;;;;;5137229;28;20030;-67
2022/04/01 11:21:39;;;;;;;5.40;2.97;;;4.30;74.60;;;;;;5137226;28;20020;-67
2022/04/01 11:24:29;;;;;;;5.18;3.45;;;4.30;74.90;;;;;;5137155;28;20020;-67
2022/04/01 11:26:55;;;;;;;6.50;3.60;;;4.30;74.10;;;;;;5137150;28;20016;-67
2022/04/01 11:29:22;;;;;;;7.18;3.45;;;4.30;74.00;;;;;;5136770;28;20073;-68
2022/04/01 11:31:49;;;;;;;7.68;3.22;;;4.20;73.80;;;;;;5136953;28;20024;-67
2022/04/01 11:34:14;;;;;;;5.30;3.22;;;4.30;73.60;;;;;;5136941;28;20091;-67
2022/04/01 11:36:42;;;;;;;6.07;3.15;;;4.30;73.60;;;;;;5135804;28;20032;-67
2022/04/01 11:39:14;;;;;;;5.70;3.47;;;4.30;73.60;;;;;;5136814;28;20026;-67
2022/04/01 11:41:58;;;;;;;5.97;2.92;;;4.30;73.10;;;;;;5136907;28;20019;-67
2022/04/01 11:44:24;;;;;;;5.47;3.20;;;4.30;73.00;;;;;;5136749;28;20045;-67
2022/04/01 11:46:54;;;;;;;5.47;3.22;;;4.30;73.10;;;;;;5136718;28;20020;-67
2022/04/01 11:49:25;;;;;;;5.40;3.10;;;4.30;72.80;;;;;;5135707;28;20052;-67
2022/04/01 11:51:51;;;;;;;4.80;3.28;;;4.30;72.80;;;;;;5136685;27;20083;-67
2022/04/01 11:54:17;;;;;;;7.22;3.65;;;4.40;72.90;;;;;;5136466;28;20057;-67
2022/04/01 11:56:44;;;;;;;5.57;3.38;;;4.40;72.90;;;;;;5136456;28;20035;-67
2022/04/01 11:59:10;;;;;;;5.25;3.22;;;4.40;72.70;;;;;;5136394;28;20049;-67
2022/04/01 12:01:58;;;;;;;5.85;3.63;;;4.30;72.10;;;;;;5136333;28;20071;-67
2022/04/01 12:04:35;;;;;;;5.18;2.97;;;4.30;72.40;;;;;;5136407;28;20046;-67
2022/04/01 12:09:55;;;;;;;5.07;3.95;;;4.30;72.20;;;;;;5136461;28;20039;-68
2022/04/01 12:12:25;;;;;;;5.82;3.17;;;4.30;72.00;;;;;;5136189;28;20114;-68
2022/04/01 12:14:55;;;;;;;6.97;3.70;;;4.30;71.60;;;;;;5136158;28;20035;-68
2022/04/01 12:17:21;;;;;;;6.80;3.30;;;4.30;72.00;;;;;;5136112;28;20041;-67
2022/04/01 12:19:46;;;;;;;5.93;3.53;;;4.40;72.50;;;;;;5136039;28;20028;-68
2022/04/01 12:22:12;;;;;;;5.30;3.15;;;4.30;71.90;;;;;;5135911;28;20023;-67
2022/04/01 12:24:38;;;;;;;5.90;3.70;;;4.30;71.70;;;;;;5135941;28;20028;-67
2022/04/01 12:27:06;;;;;;;5.97;3.92;;;4.30;72.30;;;;;;5135958;28;20019;-67
2022/04/01 12:29:32;;;;;;;6.43;3.70;;;4.30;72.80;;;;;;5134673;28;20043;-67
2022/04/01 12:32:03;;;;;;;6.22;3.70;;;4.40;72.90;;;;;;5135824;28;20048;-67
2022/04/01 12:34:30;;;;;;;7.80;3.95;;;4.40;73.00;;;;;;5135741;28;20028;-67
2022/04/01 12:37:03;;;;;;;6.47;3.80;;;4.40;73.40;;;;;;5135732;28;20032;-67
2022/04/01 12:39:31;;;;;;;5.90;3.70;;;4.40;73.10;;;;;;5135699;28;20492;-68
2022/04/01 12:42:06;;;;;;;7.05;3.90;;;4.50;72.80;;;;;;5135546;28;20031;-68
2022/04/01 12:44:34;;;;;;;7.72;4.28;;;4.50;73.10;;;;;;5134547;28;20023;-68
2022/04/01 12:47:03;;;;;;;6.35;4.13;;;4.50;72.60;;;;;;5135491;28;20022;-68
2022/04/01 12:49:33;;;;;;;9.07;4.32;;;4.50;73.00;;;;;;5135430;28;20015;-68
2022/04/01 12:52:05;;;;;;;6.63;4.05;;;4.50;72.30;;;;;;5135357;28;20514;-68
2022/04/01 12:54:42;;;;;;;6.78;4.05;;;4.60;72.80;;;;;;5135540;28;20022;-68
2022/04/01 12:57:10;;;;;;;6.60;4.00;;;4.50;72.50;;;;;;5135476;28;20023;-68
2022/04/01 12:59:49;;;;;;;7.00;3.95;;;4.60;72.70;;;;;;5135396;28;20087;-68
2022/04/01 13:02:24;;;;;;;7.30;4.40;;;4.60;72.90;;;;;;5135183;28;20024;-68
2022/04/01 13:04:51;;;;;;;8.43;4.65;;;4.60;72.60;;;;;;5135157;28;20409;-68
2022/04/01 13:07:33;;;;;;;8.23;4.13;;;4.60;73.00;;;;;;5135109;28;20034;-68
2022/04/01 13:10:01;;;;;;;8.82;4.85;;;4.70;72.60;;;;;;5135196;28;20157;-67
2022/04/01 13:12:37;;;;;;;8.27;4.80;;;4.70;72.50;;;;;;5134980;28;20029;-67
2022/04/01 13:15:06;;;;;;;10.13;4.50;;;4.80;72.40;;;;;;5135078;28;20047;-68
2022/04/01 13:17:50;;;;;;;7.68;4.68;;;4.70;72.40;;;;;;5134740;27;20020;-68
2022/04/01 13:20:27;;;;;;;8.15;4.40;;;4.80;72.70;;;;;;5134859;28;20047;-68
2022/04/01 13:22:53;;;;;;;7.03;4.65;;;4.80;73.10;;;;;;5134866;28;20023;-68
2022/04/01 13:25:19;;;;;;;9.07;4.97;;;4.80;72.80;;;;;;5134797;28;20065;-67
2022/04/01 13:27:47;;;;;;;7.68;4.65;;;4.80;72.20;;;;;;5134582;28;20024;-67